TW-0010 weather

Far Eastern Memorial Hospital Heliport
Taipei, Taipei (municipality), Taiwan

Public forecast

Using degrees Celsius for public forecast. Weather courtesy of forecast.io.

METAR (pilot weather report)

Closest report is Taipei Songshan Airport, 6.9 nm (12.8 km) NE. Retrieved 2019/07/18 14:30 UTC (0 seconds ago):

RCSS 181430Z 25011KT 9999 FEW016 BKN022 BKN035 29/27 Q0996 NOSIG RMK 25008KT/R10 A2943

TAF (pilot weather forecast)

Closest forecast is Taipei Songshan Airport, 6.9 nm (12.8 km) NE. Retrieved 2019/07/18 12:00 UTC (2 hours ago):

TAF RCSS 181100Z 1812/1912 27008KT 9999 FEW010 BKN022 BKN040 TEMPO 1812/1818 4000 SHRA FEW008 BKN014 BKN030 TEMPO 1818/1824 VRB05KT 4000 BR SCT008 BKN011 BKN030 BECMG 1900/1902 FEW015 BKN032